createdAt,value
2022-12-15T00:01:21.029Z,78.44
2022-12-15T00:04:08.569Z,78.39
2022-12-15T00:06:56.720Z,78.50
2022-12-15T00:09:44.457Z,78.43
2022-12-15T00:12:34.247Z,78.38
2022-12-15T00:15:23.554Z,78.27
2022-12-15T00:18:11.876Z,78.27
2022-12-15T00:21:00.751Z,78.31
2022-12-15T00:23:49.721Z,78.27
2022-12-15T00:26:37.812Z,78.49
2022-12-15T00:29:25.336Z,78.55
2022-12-15T00:32:13.278Z,78.36
2022-12-15T00:35:01.270Z,78.46
2022-12-15T00:37:48.725Z,78.39
2022-12-15T00:40:18.197Z,78.30
2022-12-15T00:42:47.803Z,78.30
2022-12-15T00:45:18.831Z,78.08
2022-12-15T00:47:47.920Z,78.18
2022-12-15T00:50:37.453Z,78.46
2022-12-15T00:53:25.266Z,78.59
2022-12-15T00:56:12.729Z,78.37
2022-12-15T00:59:01.564Z,78.39
2022-12-15T01:01:49.735Z,78.20
2022-12-15T01:04:39.758Z,78.23
2022-12-15T01:07:27.748Z,78.50
2022-12-15T01:10:16.912Z,78.53
2022-12-15T01:13:06.187Z,78.55
2022-12-15T01:15:57.901Z,78.62
2022-12-15T01:18:49.580Z,78.65
2022-12-15T01:21:23.158Z,78.68
2022-12-15T01:23:54.313Z,78.66
2022-12-15T01:26:23.598Z,78.39
2022-12-15T01:28:52.997Z,78.23
2022-12-15T01:31:21.999Z,78.14
2022-12-15T01:33:55.743Z,78.26
2022-12-15T01:36:25.582Z,78.46
2022-12-15T01:38:55.060Z,78.63
2022-12-15T01:41:24.698Z,78.94
2022-12-15T01:43:53.962Z,79.32
2022-12-15T01:46:25.510Z,79.28
2022-12-15T01:49:03.482Z,79.25
2022-12-15T01:51:40.862Z,79.26
2022-12-15T01:54:27.738Z,79.53
2022-12-15T01:57:03.748Z,79.85
2022-12-15T01:59:44.260Z,79.77
2022-12-15T02:02:15.167Z,79.77
2022-12-15T02:04:46.494Z,79.91
2022-12-15T02:07:17.490Z,79.97
2022-12-15T02:09:48.800Z,80.11
2022-12-15T02:12:55.069Z,80.28
2022-12-15T02:15:28.368Z,80.40
2022-12-15T02:18:14.155Z,80.53
2022-12-15T02:21:10.579Z,80.40
2022-12-15T02:24:14.794Z,80.58
2022-12-15T02:27:16.401Z,80.02
2022-12-15T02:30:17.475Z,79.91
2022-12-15T02:32:59.963Z,80.04
2022-12-15T02:35:48.057Z,80.17
2022-12-15T02:38:41.863Z,79.57
2022-12-15T02:41:36.476Z,79.47
2022-12-15T02:44:14.991Z,79.77
2022-12-15T02:46:59.944Z,79.54
2022-12-15T02:49:55.334Z,79.32
2022-12-15T02:52:24.397Z,79.18
2022-12-15T02:55:16.488Z,79.34
2022-12-15T02:57:59.176Z,79.35
2022-12-15T03:00:32.594Z,79.35
2022-12-15T03:03:02.125Z,79.51
2022-12-15T03:05:33.849Z,79.53
2022-12-15T03:08:03.031Z,79.48
2022-12-15T03:10:32.536Z,79.54
2022-12-15T03:13:01.575Z,79.62
2022-12-15T03:15:35.279Z,80.09
2022-12-15T03:18:05.313Z,80.29
2022-12-15T03:20:35.802Z,80.44
2022-12-15T03:23:06.256Z,80.06
2022-12-15T03:25:35.321Z,79.86
2022-12-15T03:28:05.944Z,80.23
2022-12-15T03:30:34.879Z,80.52
2022-12-15T03:33:04.598Z,80.75
2022-12-15T03:35:34.287Z,80.81
2022-12-15T03:38:03.736Z,80.31
2022-12-15T03:40:34.813Z,79.93
2022-12-15T03:43:04.950Z,79.93
2022-12-15T03:45:35.240Z,79.97
2022-12-15T03:48:07.191Z,80.05
2022-12-15T03:50:39.016Z,80.06
2022-12-15T03:53:08.773Z,80.05
2022-12-15T03:55:39.122Z,79.82
2022-12-15T03:58:08.522Z,79.76
2022-12-15T04:00:38.333Z,79.89
2022-12-15T04:03:07.556Z,79.97
2022-12-15T04:05:38.654Z,79.97
2022-12-15T04:08:08.023Z,80.14
2022-12-15T04:10:37.233Z,80.19
2022-12-15T04:13:09.347Z,80.29
2022-12-15T04:15:40.654Z,80.31
2022-12-15T04:18:11.562Z,80.27
2022-12-15T04:20:42.217Z,80.33
2022-12-15T04:23:11.377Z,80.06
2022-12-15T04:25:59.493Z,80.07
2022-12-15T04:28:46.898Z,80.02
2022-12-15T04:31:42.789Z,80.31
2022-12-15T04:34:34.494Z,80.25
2022-12-15T04:37:22.875Z,80.50
2022-12-15T04:40:13.028Z,80.37
2022-12-15T04:43:04.955Z,80.39
2022-12-15T04:45:52.844Z,80.24
2022-12-15T04:48:40.646Z,80.09
2022-12-15T04:51:28.354Z,80.19
2022-12-15T04:54:16.042Z,80.21
2022-12-15T04:57:05.989Z,80.18
2022-12-15T04:59:54.820Z,80.51
2022-12-15T05:02:43.585Z,80.85
2022-12-15T05:05:31.489Z,81.18
2022-12-15T05:08:18.951Z,80.67
2022-12-15T05:11:06.527Z,80.67
2022-12-15T05:13:55.929Z,80.87
2022-12-15T05:16:45.493Z,80.84
2022-12-15T05:19:33.225Z,81.03
2022-12-15T05:22:22.311Z,80.87
2022-12-15T05:25:13.477Z,80.75
2022-12-15T05:28:00.884Z,80.87
2022-12-15T05:30:49.356Z,81.06
2022-12-15T05:33:18.510Z,81.18
2022-12-15T05:35:47.483Z,81.05
2022-12-15T05:38:18.898Z,80.95
2022-12-15T05:40:48.443Z,80.77
2022-12-15T05:43:26.028Z,80.81
2022-12-15T05:45:57.238Z,80.78
2022-12-15T05:48:27.876Z,80.80
2022-12-15T05:50:56.960Z,81.03
2022-12-15T05:53:26.594Z,80.74
2022-12-15T05:56:08.787Z,80.86
2022-12-15T05:58:44.583Z,80.80
2022-12-15T06:01:18.355Z,80.97
2022-12-15T06:03:48.806Z,80.46
2022-12-15T06:06:18.456Z,80.72
2022-12-15T06:08:49.980Z,80.77
2022-12-15T06:11:22.898Z,80.64
2022-12-15T06:13:53.671Z,80.72
2022-12-15T06:16:24.877Z,80.60
2022-12-15T06:18:57.041Z,80.51
2022-12-15T06:21:31.841Z,80.55
2022-12-15T06:24:01.081Z,80.89
2022-12-15T06:26:41.393Z,80.72
2022-12-15T06:29:12.300Z,80.54
2022-12-15T06:31:43.190Z,80.68
2022-12-15T06:34:15.372Z,80.87
2022-12-15T06:36:45.053Z,80.80
2022-12-15T06:39:15.938Z,80.74
2022-12-15T06:41:45.706Z,80.65
2022-12-15T06:44:16.939Z,80.79
2022-12-15T06:46:47.037Z,80.71
2022-12-15T06:49:44.310Z,80.62
2022-12-15T06:52:13.428Z,80.76
2022-12-15T06:54:42.836Z,80.89
2022-12-15T06:57:15.018Z,81.05
2022-12-15T06:59:44.628Z,80.83
2022-12-15T07:02:22.352Z,81.05
2022-12-15T07:04:55.286Z,80.84
2022-12-15T07:07:25.018Z,80.81
2022-12-15T07:09:56.358Z,80.78
2022-12-15T07:12:25.657Z,80.82
2022-12-15T07:14:54.666Z,80.78
2022-12-15T07:17:24.719Z,80.85
2022-12-15T07:19:53.995Z,80.59
2022-12-15T07:22:24.155Z,80.59
2022-12-15T07:24:53.320Z,80.75
2022-12-15T07:27:23.147Z,80.97
2022-12-15T07:29:54.423Z,81.05
2022-12-15T07:32:23.516Z,81.05
2022-12-15T07:34:56.616Z,80.83
2022-12-15T07:37:27.443Z,80.91
2022-12-15T07:39:59.142Z,80.85
2022-12-15T07:42:31.118Z,80.82
2022-12-15T07:45:01.924Z,80.85
2022-12-15T07:47:33.302Z,80.87
2022-12-15T07:50:05.024Z,80.69
2022-12-15T07:52:34.048Z,80.70
2022-12-15T07:55:03.220Z,80.84
2022-12-15T07:57:33.338Z,80.99
2022-12-15T08:00:06.184Z,81.03
2022-12-15T08:02:43.166Z,80.97
2022-12-15T08:05:13.608Z,80.99
2022-12-15T08:07:42.700Z,81.14
2022-12-15T08:10:11.807Z,81.14
2022-12-15T08:12:41.364Z,80.91
2022-12-15T08:15:12.179Z,81.03
2022-12-15T08:17:41.190Z,81.06
2022-12-15T08:20:11.686Z,81.21
2022-12-15T08:22:40.643Z,81.24
2022-12-15T08:25:12.987Z,80.96
2022-12-15T08:27:43.364Z,80.95
2022-12-15T08:30:13.104Z,81.10
2022-12-15T08:32:45.048Z,80.97
2022-12-15T08:35:54.540Z,80.91
2022-12-15T08:38:12.942Z,80.63
2022-12-15T08:40:41.843Z,80.73
2022-12-15T08:43:12.948Z,80.95
2022-12-15T08:45:43.901Z,80.74
2022-12-15T08:48:16.855Z,80.99
2022-12-15T08:50:47.804Z,80.85
2022-12-15T08:53:33.593Z,80.75
2022-12-15T08:56:09.909Z,80.82
2022-12-15T08:58:39.865Z,80.97
2022-12-15T09:01:19.016Z,81.02
2022-12-15T09:03:54.514Z,81.13
2022-12-15T09:06:30.764Z,81.17
2022-12-15T09:09:02.818Z,81.18
2022-12-15T09:11:32.595Z,81.22
2022-12-15T09:14:01.873Z,81.19
2022-12-15T09:16:31.738Z,81.08
2022-12-15T09:19:03.238Z,80.94
2022-12-15T09:21:32.472Z,80.73
2022-12-15T09:24:03.234Z,80.63
2022-12-15T09:26:37.058Z,80.67
2022-12-15T09:29:06.333Z,80.60
2022-12-15T09:31:38.971Z,80.81
2022-12-15T09:34:14.525Z,80.87
2022-12-15T09:36:44.496Z,80.74
2022-12-15T09:39:17.312Z,80.62
2022-12-15T09:41:54.961Z,80.67
2022-12-15T09:44:27.043Z,80.71
2022-12-15T09:47:02.260Z,80.53
2022-12-15T09:49:59.767Z,80.44
2022-12-15T09:52:29.469Z,80.81
2022-12-15T09:54:59.538Z,80.79
2022-12-15T09:57:46.048Z,80.46
2022-12-15T10:00:46.255Z,80.83
2022-12-15T10:03:26.240Z,80.58
2022-12-15T10:06:22.318Z,80.73
2022-12-15T10:09:02.295Z,80.82
2022-12-15T10:11:50.424Z,81.04
2022-12-15T10:14:50.613Z,80.69
2022-12-15T10:17:28.467Z,80.59
2022-12-15T10:20:25.066Z,80.58
2022-12-15T10:23:00.600Z,80.57
2022-12-15T10:25:31.620Z,80.31
2022-12-15T10:28:31.365Z,80.88
2022-12-15T10:31:27.434Z,80.62
2022-12-15T10:34:17.532Z,80.45
2022-12-15T10:36:52.142Z,80.15
2022-12-15T10:39:24.508Z,80.59
2022-12-15T10:42:15.257Z,80.64
2022-12-15T10:44:50.339Z,80.37
2022-12-15T10:47:26.464Z,80.45
2022-12-15T10:50:20.979Z,80.36
2022-12-15T10:52:54.830Z,80.27
2022-12-15T10:55:37.599Z,80.47
2022-12-15T10:58:24.309Z,80.36
2022-12-15T11:01:18.999Z,80.07
2022-12-15T11:03:53.189Z,80.16
2022-12-15T11:06:34.436Z,80.26
2022-12-15T11:09:29.173Z,80.56
2022-12-15T11:12:16.951Z,80.40
2022-12-15T11:17:44.550Z,80.07
2022-12-15T11:20:23.942Z,79.89
2022-12-15T11:23:01.100Z,80.11
2022-12-15T11:25:43.164Z,80.22
2022-12-15T11:28:18.833Z,80.43
2022-12-15T11:31:04.515Z,80.22
2022-12-15T11:33:34.257Z,79.81
2022-12-15T11:36:33.450Z,79.91
2022-12-15T11:39:34.957Z,80.23
2022-12-15T11:42:11.226Z,80.09
2022-12-15T11:44:51.450Z,80.24
2022-12-15T11:47:29.670Z,79.98
2022-12-15T11:50:10.220Z,79.71
2022-12-15T11:52:49.016Z,79.52
2022-12-15T11:55:29.715Z,79.78
2022-12-15T11:58:45.108Z,79.97
2022-12-15T12:01:39.000Z,79.97
2022-12-15T12:04:30.956Z,79.78
2022-12-15T12:07:30.037Z,79.68
2022-12-15T12:10:20.890Z,79.55
2022-12-15T12:13:22.214Z,79.63
2022-12-15T12:16:15.696Z,79.72
2022-12-15T12:18:56.416Z,79.69
2022-12-15T12:21:37.327Z,79.80
2022-12-15T12:55:14.868Z,79.09
2022-12-15T12:57:46.873Z,79.13
2022-12-15T14:37:35.430Z,81.19
2022-12-15T14:43:39.176Z,81.31
2022-12-15T14:46:16.161Z,81.40
2022-12-15T14:48:58.673Z,81.36
2022-12-15T14:51:53.642Z,81.40
2022-12-15T14:54:57.567Z,81.43
2022-12-15T14:57:45.632Z,81.51
2022-12-15T15:00:35.840Z,81.55
2022-12-15T15:03:14.741Z,80.31
2022-12-15T15:06:35.699Z,81.44
2022-12-15T15:12:47.768Z,81.57
2022-12-15T15:15:26.528Z,81.42
2022-12-15T15:18:01.599Z,81.50
2022-12-15T15:20:34.960Z,81.44
2022-12-15T15:23:20.399Z,81.55
2022-12-15T15:25:57.033Z,81.47
2022-12-15T15:32:23.068Z,81.44
2022-12-15T15:34:52.623Z,81.49
2022-12-15T15:40:43.535Z,81.54
2022-12-15T15:50:32.770Z,81.60
2022-12-15T15:53:23.566Z,81.88
2022-12-15T15:55:59.670Z,81.82
2022-12-15T16:05:41.481Z,81.55
2022-12-15T16:11:47.368Z,81.65
2022-12-15T16:14:49.165Z,81.72
2022-12-15T16:21:00.076Z,81.63
2022-12-15T16:23:30.999Z,81.57
2022-12-15T16:29:34.977Z,81.56
2022-12-15T16:35:28.377Z,81.49
2022-12-15T16:37:57.704Z,81.43
2022-12-15T16:44:00.036Z,81.64
2022-12-15T16:46:40.366Z,81.64
2022-12-15T16:52:50.305Z,81.61
2022-12-15T16:55:33.845Z,81.68
2022-12-15T16:58:19.017Z,81.55
2022-12-15T17:01:11.019Z,81.59
2022-12-15T17:06:56.386Z,81.45
2022-12-15T17:09:28.199Z,81.46
2022-12-15T17:12:00.174Z,81.45
2022-12-15T17:14:31.718Z,81.51
2022-12-15T17:17:03.252Z,81.66
2022-12-15T17:19:32.865Z,81.62
2022-12-15T17:22:04.507Z,81.60
2022-12-15T17:24:36.626Z,81.64
2022-12-15T17:27:08.556Z,81.56
2022-12-15T17:29:39.945Z,81.54
2022-12-15T17:32:13.856Z,81.53
2022-12-15T17:34:45.266Z,81.53
2022-12-15T17:37:15.096Z,81.47
2022-12-15T17:39:51.772Z,81.57
2022-12-15T17:42:23.146Z,81.66
2022-12-15T17:44:53.603Z,81.62
2022-12-15T17:47:26.625Z,81.60
2022-12-15T17:49:58.539Z,81.70
2022-12-15T17:52:37.387Z,81.67
2022-12-15T17:58:28.987Z,81.70
2022-12-15T18:00:58.897Z,81.90
2022-12-15T18:03:32.292Z,81.65
2022-12-15T18:06:06.209Z,81.63
2022-12-15T18:08:37.442Z,81.70
2022-12-15T18:11:08.115Z,81.67
2022-12-15T18:13:42.390Z,81.75
2022-12-15T18:16:13.460Z,81.70
2022-12-15T18:18:43.514Z,81.67
2022-12-15T18:21:16.128Z,81.77
2022-12-15T18:23:49.307Z,81.71
2022-12-15T18:26:22.519Z,81.73
2022-12-15T18:28:54.390Z,81.57
2022-12-15T18:31:29.300Z,81.70
2022-12-15T18:34:04.543Z,81.66
2022-12-15T18:36:37.521Z,81.62
2022-12-15T18:39:26.548Z,81.83
2022-12-15T18:41:58.158Z,81.67
2022-12-15T18:44:32.978Z,81.69
2022-12-15T18:47:04.729Z,81.78
2022-12-15T18:49:34.697Z,81.98
2022-12-15T18:52:05.065Z,81.99
2022-12-15T18:54:38.038Z,81.72
2022-12-15T18:57:33.428Z,81.75
2022-12-15T19:00:16.596Z,81.79
2022-12-15T19:02:51.410Z,81.79
2022-12-15T19:05:30.942Z,81.80
2022-12-15T19:08:14.437Z,81.92
2022-12-15T19:10:58.132Z,81.84
2022-12-15T19:13:36.206Z,81.87
2022-12-15T19:16:11.329Z,81.86
2022-12-15T19:18:59.218Z,81.61
2022-12-15T19:21:47.036Z,81.60
2022-12-15T19:24:47.886Z,81.64
2022-12-15T19:27:22.581Z,81.68
2022-12-15T19:29:56.548Z,81.78
2022-12-15T19:32:27.865Z,81.83
2022-12-15T19:34:59.006Z,81.76
2022-12-15T19:37:33.888Z,81.57
2022-12-15T19:40:08.929Z,81.75
2022-12-15T19:42:42.336Z,81.49
2022-12-15T19:45:18.392Z,81.58
2022-12-15T19:47:53.536Z,81.56
2022-12-15T19:50:29.937Z,81.76
2022-12-15T19:53:05.461Z,81.71
2022-12-15T19:55:38.887Z,81.73
2022-12-15T19:58:28.672Z,81.65
2022-12-15T20:01:21.984Z,81.59
2022-12-15T20:03:53.588Z,81.63
2022-12-15T20:06:29.938Z,81.53
2022-12-15T20:09:02.099Z,81.44
2022-12-15T20:11:37.764Z,81.60
2022-12-15T20:14:19.989Z,81.54
2022-12-15T20:16:51.873Z,81.59
2022-12-15T20:19:24.349Z,81.59
2022-12-15T20:22:00.211Z,81.62
2022-12-15T20:24:34.458Z,81.68
2022-12-15T20:27:11.660Z,81.55
2022-12-15T20:29:47.397Z,81.47
2022-12-15T20:32:22.125Z,81.62
2022-12-15T20:37:44.845Z,81.52
2022-12-15T20:40:20.898Z,81.57
2022-12-15T20:42:53.980Z,81.60
2022-12-15T20:45:27.391Z,81.60
2022-12-15T20:47:59.232Z,81.75
2022-12-15T20:50:42.323Z,81.63
2022-12-15T20:53:22.605Z,81.72
2022-12-15T20:55:57.713Z,81.71
2022-12-15T20:58:33.096Z,81.84
2022-12-15T21:01:06.896Z,81.89
2022-12-15T21:03:39.397Z,81.90
2022-12-15T21:06:11.615Z,81.76
2022-12-15T21:08:42.390Z,81.77
2022-12-15T21:11:23.367Z,81.74
2022-12-15T21:13:54.804Z,81.83
2022-12-15T21:16:27.669Z,81.86
2022-12-15T21:19:19.221Z,81.74
2022-12-15T21:21:52.501Z,81.76
2022-12-15T21:24:27.500Z,81.68
2022-12-15T21:26:57.409Z,81.77
2022-12-15T21:29:29.370Z,81.76
2022-12-15T21:31:59.757Z,81.74
2022-12-15T21:34:29.234Z,81.71
2022-12-15T21:36:59.935Z,81.82
2022-12-15T21:39:34.658Z,81.83
2022-12-15T21:42:08.878Z,81.66
2022-12-15T21:44:38.332Z,81.80
2022-12-15T21:47:27.443Z,81.83
2022-12-15T21:49:57.969Z,81.76
2022-12-15T21:52:28.298Z,81.71
2022-12-15T21:54:57.447Z,81.70
2022-12-15T21:57:26.502Z,81.79
2022-12-15T21:59:56.829Z,81.74
2022-12-15T22:02:27.412Z,81.78
2022-12-15T22:04:56.737Z,81.78
2022-12-15T22:07:28.088Z,81.70
2022-12-15T22:09:58.810Z,81.69
2022-12-15T22:12:29.445Z,81.75
2022-12-15T22:14:58.853Z,81.75
2022-12-15T22:17:33.437Z,81.60
2022-12-15T22:20:06.564Z,81.63
2022-12-15T22:22:35.951Z,81.70
2022-12-15T22:25:07.914Z,81.73
2022-12-15T22:27:37.772Z,81.70
2022-12-15T22:30:15.994Z,81.83
2022-12-15T22:32:45.654Z,81.85
2022-12-15T22:35:20.462Z,81.71
2022-12-15T22:37:54.007Z,81.78
2022-12-15T22:40:26.414Z,81.70
2022-12-15T22:42:58.338Z,81.81
2022-12-15T22:45:28.755Z,81.83
2022-12-15T22:47:57.953Z,81.51
2022-12-15T22:50:27.915Z,81.57
2022-12-15T22:52:57.837Z,81.55
2022-12-15T22:55:28.693Z,81.46
2022-12-15T22:58:01.322Z,81.46
2022-12-15T23:00:31.133Z,81.49
2022-12-15T23:03:01.615Z,81.48
2022-12-15T23:05:30.782Z,81.37
2022-12-15T23:08:00.178Z,81.39
2022-12-15T23:10:47.966Z,81.54
2022-12-15T23:13:17.011Z,81.47
2022-12-15T23:16:06.870Z,81.53
2022-12-15T23:18:39.095Z,81.41
2022-12-15T23:21:09.988Z,81.42
2022-12-15T23:23:39.242Z,81.22
2022-12-15T23:26:08.374Z,81.44
2022-12-15T23:28:39.169Z,81.38
2022-12-15T23:31:09.351Z,81.37
2022-12-15T23:33:38.864Z,81.30
2022-12-15T23:36:09.834Z,81.46
2022-12-15T23:38:42.414Z,81.33
2022-12-15T23:41:16.629Z,81.60
2022-12-15T23:43:47.829Z,81.46
2022-12-15T23:46:17.021Z,81.52
2022-12-15T23:48:49.374Z,81.35
2022-12-15T23:51:21.591Z,81.41
2022-12-15T23:53:52.075Z,81.50
2022-12-15T23:56:25.035Z,81.68
2022-12-15T23:58:59.457Z,81.57
